createdAt,value
2019-03-28T00:03:02.862Z,102460.57
2019-03-28T00:08:28.432Z,102457.95
2019-03-28T00:13:53.478Z,102454.46
2019-03-28T00:19:18.695Z,102454.78
2019-03-28T00:24:47.890Z,102453.86
2019-03-28T00:30:14.859Z,102452.27
2019-03-28T00:35:39.247Z,102458.59
2019-03-28T00:41:03.879Z,102447.23
2019-03-28T00:46:29.247Z,102445.42
2019-03-28T00:51:53.362Z,102449.27
2019-03-28T00:57:19.210Z,102451.89
2019-03-28T01:02:44.530Z,102446.06
2019-03-28T01:08:10.014Z,102445.21
2019-03-28T01:13:35.897Z,102448.67
2019-03-28T01:19:00.954Z,102450.72
2019-03-28T01:24:26.409Z,102453.44
2019-03-28T01:29:51.724Z,102447.75
2019-03-28T01:35:16.013Z,102454.36
2019-03-28T01:40:40.158Z,102448.17
2019-03-28T01:46:04.703Z,102446.09
2019-03-28T01:51:29.316Z,102449.38
2019-03-28T01:56:54.447Z,102448.17
2019-03-28T02:02:20.238Z,102446.87
2019-03-28T02:07:44.607Z,102443.69
2019-03-28T02:13:09.077Z,102448.11
2019-03-28T02:18:34.633Z,102451.17
2019-03-28T02:24:00.131Z,102445.03
2019-03-28T02:29:24.710Z,102453.83
2019-03-28T02:34:50.032Z,102449.41
2019-03-28T02:40:16.694Z,102454.53
2019-03-28T02:45:42.075Z,102451.56
2019-03-28T02:51:07.544Z,102458.95
2019-03-28T02:56:32.500Z,102462.87
2019-03-28T03:01:57.874Z,102458.56
2019-03-28T03:07:23.392Z,102459.12
2019-03-28T03:12:48.351Z,102462.94
2019-03-28T03:18:12.673Z,102465.48
2019-03-28T03:23:37.979Z,102456.91
2019-03-28T03:29:02.218Z,102453.52
2019-03-28T03:34:27.219Z,102461.17
2019-03-28T03:39:52.389Z,102467.31
2019-03-28T03:45:17.672Z,102462.55
2019-03-28T03:50:41.986Z,102468.62
2019-03-28T03:56:06.240Z,102465.91
2019-03-28T04:01:30.881Z,102467.67
2019-03-28T04:06:56.129Z,102471.17
2019-03-28T04:12:21.055Z,102474.23
2019-03-28T04:17:47.732Z,102480.87
2019-03-28T04:23:12.110Z,102478.66
2019-03-28T04:28:36.620Z,102484.66
2019-03-28T04:34:07.034Z,102491.30
2019-03-28T04:39:27.586Z,102487.37
2019-03-28T04:44:53.089Z,102496.10
2019-03-28T04:50:18.300Z,102500.87
2019-03-28T04:55:43.306Z,102504.65
2019-03-28T05:01:07.914Z,102501.64
2019-03-28T05:06:32.272Z,102511.53
2019-03-28T05:11:57.052Z,102518.07
2019-03-28T05:17:22.452Z,102513.16
2019-03-28T05:22:48.485Z,102515.49
2019-03-28T05:28:13.809Z,102513.73
2019-03-28T05:33:39.421Z,102532.88
2019-03-28T05:39:04.739Z,102532.63
2019-03-28T05:44:28.908Z,102527.44
2019-03-28T05:49:53.258Z,102535.06
2019-03-28T05:55:18.742Z,102540.47
2019-03-28T06:00:43.092Z,102548.80
2019-03-28T06:06:07.998Z,102548.91
2019-03-28T06:11:34.333Z,102556.61
2019-03-28T06:16:59.625Z,102558.66
2019-03-28T06:22:23.970Z,102569.05
2019-03-28T06:27:49.399Z,102574.08
2019-03-28T06:33:15.009Z,102581.73
2019-03-28T06:38:40.038Z,102589.20
2019-03-28T06:44:05.549Z,102588.88
2019-03-28T06:49:29.771Z,102599.41
2019-03-28T06:54:54.980Z,102600.37
2019-03-28T07:00:20.512Z,102606.88
2019-03-28T07:05:45.309Z,102613.13
2019-03-28T07:11:10.147Z,102608.33
2019-03-28T07:16:35.722Z,102614.58
2019-03-28T07:22:00.184Z,102621.05
2019-03-28T07:27:25.071Z,102619.78
2019-03-28T07:32:50.470Z,102618.56
2019-03-28T07:38:15.653Z,102622.83
2019-03-28T07:43:40.853Z,102620.75
2019-03-28T07:49:05.807Z,102633.77
2019-03-28T07:54:30.262Z,102625.98
2019-03-28T08:00:04.004Z,102633.52
2019-03-28T08:05:21.791Z,102640.30
2019-03-28T08:10:47.135Z,102634.95
2019-03-28T08:16:11.553Z,102639.57
2019-03-28T08:21:36.005Z,102636.03
2019-03-28T08:27:00.544Z,102639.31
2019-03-28T08:32:26.940Z,102643.11
2019-03-28T08:37:52.368Z,102647.19
2019-03-28T08:43:17.559Z,102658.58
2019-03-28T08:48:42.183Z,102658.26
2019-03-28T08:54:06.511Z,102674.57
2019-03-28T08:59:30.939Z,102675.42
2019-03-28T09:04:56.254Z,102678.38
2019-03-28T09:10:21.662Z,102675.14
2019-03-28T09:15:46.015Z,102680.45
2019-03-28T09:21:11.075Z,102677.31
2019-03-28T09:26:36.291Z,102664.34
2019-03-28T09:32:01.545Z,102667.16
2019-03-28T09:37:26.740Z,102671.98
2019-03-28T09:42:52.009Z,102667.89
2019-03-28T09:48:16.660Z,102665.98
2019-03-28T09:53:41.799Z,102660.44
2019-03-28T09:59:07.240Z,102659.38
2019-03-28T10:04:32.355Z,102658.58
2019-03-28T10:09:57.651Z,102659.50
2019-03-28T10:15:21.968Z,102664.24
2019-03-28T10:20:47.609Z,102675.38
2019-03-28T10:26:12.594Z,102665.73
2019-03-28T10:31:37.224Z,102676.22
2019-03-28T10:37:01.582Z,102681.47
2019-03-28T10:42:26.956Z,102676.22
2019-03-28T10:47:51.325Z,102679.61
2019-03-28T10:53:16.281Z,102682.45
2019-03-28T10:58:41.495Z,102676.81
2019-03-28T11:04:05.792Z,102685.08
2019-03-28T11:09:31.003Z,102683.97
2019-03-28T11:14:55.224Z,102686.66
2019-03-28T11:20:20.438Z,102684.69
2019-03-28T11:25:45.629Z,102699.46
2019-03-28T11:31:09.801Z,102705.51
2019-03-28T11:36:34.918Z,102718.80
2019-03-28T11:42:00.520Z,102714.15
2019-03-28T11:47:24.733Z,102715.66
2019-03-28T11:52:49.114Z,102713.38
2019-03-28T11:58:13.475Z,102709.36
2019-03-28T12:03:39.230Z,102716.56
2019-03-28T12:09:05.494Z,102714.95
2019-03-28T12:14:30.844Z,102717.66
2019-03-28T12:19:57.128Z,102719.69
2019-03-28T12:25:22.995Z,102721.52
2019-03-28T12:30:47.335Z,102718.94
2019-03-28T12:36:11.574Z,102719.73
2019-03-28T12:41:36.290Z,102720.47
2019-03-28T12:47:00.641Z,102725.79
2019-03-28T12:52:24.947Z,102717.28
2019-03-28T12:57:49.198Z,102720.99
2019-03-28T13:03:14.110Z,102727.77
2019-03-28T13:08:39.783Z,102725.16
2019-03-28T13:14:04.677Z,102730.48
2019-03-28T13:19:29.697Z,102736.06
2019-03-28T13:24:54.968Z,102738.73
2019-03-28T13:30:20.942Z,102736.58
2019-03-28T13:35:45.820Z,102739.58
2019-03-28T13:41:11.040Z,102740.89
2019-03-28T13:46:35.937Z,102744.48
2019-03-28T13:52:01.473Z,102741.19
2019-03-28T13:57:25.979Z,102735.10
2019-03-28T14:02:58.598Z,102735.10
2019-03-28T14:08:17.218Z,102731.75
2019-03-28T14:13:42.321Z,102716.03
2019-03-28T14:19:06.930Z,102716.88
2019-03-28T14:24:32.240Z,102720.61
2019-03-28T14:29:56.860Z,102720.88
2019-03-28T14:35:21.127Z,102728.08
2019-03-28T14:40:45.679Z,102734.98
2019-03-28T14:46:10.665Z,102727.73
2019-03-28T14:51:38.110Z,102737.39
2019-03-28T14:57:03.941Z,102739.92
2019-03-28T15:02:28.163Z,102735.27
2019-03-28T15:07:53.469Z,102731.03
2019-03-28T15:13:17.656Z,102731.97
2019-03-28T15:18:43.178Z,102726.80
2019-03-28T15:24:08.667Z,102727.84
2019-03-28T15:29:32.805Z,102713.84
2019-03-28T15:34:57.441Z,102714.17
2019-03-28T15:40:22.423Z,102710.03
2019-03-28T15:45:47.398Z,102708.08
2019-03-28T15:51:11.857Z,102705.04
2019-03-28T15:56:37.464Z,102713.52
2019-03-28T16:02:02.004Z,102729.97
2019-03-28T16:07:29.306Z,102740.11
2019-03-28T16:12:52.912Z,102738.81
2019-03-28T16:18:18.720Z,102751.91
2019-03-28T16:23:44.127Z,102754.76
2019-03-28T16:29:09.301Z,102751.98
2019-03-28T16:34:34.483Z,102756.83
2019-03-28T16:39:59.730Z,102749.23
2019-03-28T16:45:25.005Z,102750.89
2019-03-28T16:50:50.543Z,102760.80
2019-03-28T16:56:17.084Z,102758.06
2019-03-28T17:01:42.584Z,102758.18
2019-03-28T17:07:08.041Z,102753.17
2019-03-28T17:12:33.419Z,102755.52
2019-03-28T17:17:58.350Z,102765.45
2019-03-28T17:23:23.900Z,102757.70
2019-03-28T17:28:48.787Z,102767.09
2019-03-28T17:34:14.286Z,102777.26
2019-03-28T17:39:39.457Z,102776.48
2019-03-28T17:45:03.887Z,102774.33
2019-03-28T17:50:29.358Z,102785.33
2019-03-28T17:55:54.007Z,102790.61
2019-03-28T18:01:23.395Z,102790.15
2019-03-28T18:06:47.957Z,102805.55
2019-03-28T18:12:13.852Z,102802.01
2019-03-28T18:17:39.294Z,102800.70
2019-03-28T18:23:03.493Z,102797.62
2019-03-28T18:28:31.512Z,102811.17
2019-03-28T18:33:55.296Z,102810.89
2019-03-28T18:39:20.509Z,102820.05
2019-03-28T18:44:44.769Z,102817.37
2019-03-28T18:50:10.546Z,102821.37
2019-03-28T18:55:36.404Z,102825.50
2019-03-28T19:01:01.697Z,102822.20
2019-03-28T19:06:26.985Z,102830.13
2019-03-28T19:11:52.050Z,102832.75
2019-03-28T19:17:16.315Z,102840.50
2019-03-28T19:22:40.758Z,102846.98
2019-03-28T19:28:07.882Z,102839.59
2019-03-28T19:33:33.008Z,102847.16
2019-03-28T19:38:58.488Z,102849.97
2019-03-28T19:44:25.878Z,102854.82
2019-03-28T19:49:50.363Z,102856.36
2019-03-28T19:55:20.397Z,102861.14
2019-03-28T20:00:44.656Z,102856.72
2019-03-28T20:06:21.650Z,102866.91
2019-03-28T20:11:36.854Z,102869.09
2019-03-28T20:17:01.957Z,102869.72
2019-03-28T20:22:26.398Z,102868.41
2019-03-28T20:27:51.503Z,102866.15
2019-03-28T20:33:16.727Z,102860.91
2019-03-28T20:38:41.604Z,102860.66
2019-03-28T20:44:07.477Z,102859.90
2019-03-28T20:49:32.713Z,102865.98
2019-03-28T20:54:57.605Z,102869.09
2019-03-28T21:00:39.434Z,102873.02
2019-03-28T21:06:14.689Z,102864.41
2019-03-28T21:11:30.076Z,102863.56
2019-03-28T21:16:58.112Z,102858.33
2019-03-28T21:22:22.342Z,102860.58
2019-03-28T21:27:47.573Z,102866.28
2019-03-28T21:33:14.877Z,102860.28
2019-03-28T21:38:38.145Z,102863.33
2019-03-28T21:44:02.427Z,102861.17
2019-03-28T21:49:26.510Z,102866.38
2019-03-28T21:54:50.793Z,102862.91
2019-03-28T22:00:16.934Z,102858.00
2019-03-28T22:05:42.448Z,102861.53
2019-03-28T22:11:07.828Z,102860.28
2019-03-28T22:16:33.833Z,102862.55
2019-03-28T22:21:58.291Z,102862.34
2019-03-28T22:27:23.301Z,102860.80
2019-03-28T22:32:47.458Z,102860.70
2019-03-28T22:38:12.942Z,102853.31
2019-03-28T22:43:38.856Z,102852.00
2019-03-28T22:49:04.384Z,102854.03
2019-03-28T22:54:29.641Z,102856.28
2019-03-28T22:59:54.669Z,102859.30
2019-03-28T23:05:20.182Z,102862.58
2019-03-28T23:10:45.514Z,102865.65
2019-03-28T23:16:10.485Z,102859.11
2019-03-28T23:21:34.862Z,102869.73
2019-03-28T23:27:01.001Z,102873.11
2019-03-28T23:32:25.539Z,102878.27
2019-03-28T23:37:51.070Z,102872.55
2019-03-28T23:43:16.334Z,102870.42
2019-03-28T23:48:41.746Z,102872.80
2019-03-28T23:54:06.203Z,102868.19
2019-03-28T23:59:31.375Z,102874.42
